Time;durP1;ratioP1;P1;durP2;ratioP2;P2;SDS_P1;SDS_P2;PMS_P1;PMS_P2;Temp;Humidity;BMP_temperature;BMP_pressure;BME280_temperature;BME280_humidity;BME280_pressure;Samples;Min_cycle;Max_cycle;Signal;HPM_P1;HPM_P2
2022/04/24 00:01:05;;;;;;;12.43;8.25;;;;;;;11.37;91.91;100680.47;5111630;28;20093;-26
2022/04/24 00:03:33;;;;;;;11.52;9.50;;;;;;;11.33;92.44;100673.81;5113396;28;20047;-28
2022/04/24 00:06:01;;;;;;;9.52;7.72;;;;;;;11.33;92.10;100670.19;5111719;28;20471;-28
2022/04/24 00:08:29;;;;;;;10.60;8.00;;;;;;;11.33;92.09;100678.59;5112743;28;20142;-27
2022/04/24 00:10:58;;;;;;;11.40;8.52;;;;;;;11.30;92.23;100671.63;5113403;28;20051;-25
2022/04/24 00:13:25;;;;;;;12.75;9.75;;;;;;;11.28;92.36;100673.09;5105273;28;20445;-26
2022/04/24 00:15:53;;;;;;;13.25;10.77;;;;;;;11.25;92.44;100668.94;5113170;28;20048;-28
2022/04/24 00:18:21;;;;;;;9.77;8.30;;;;;;;11.22;92.76;100669.56;5112958;28;20138;-28
2022/04/24 00:20:49;;;;;;;9.10;7.55;;;;;;;11.21;92.76;100670.69;5112144;28;20035;-27
2022/04/24 00:23:17;;;;;;;11.50;8.93;;;;;;;11.19;92.95;100674.94;5112969;28;20043;-28
2022/04/24 00:25:44;;;;;;;10.10;8.15;;;;;;;11.16;92.90;100667.19;5113245;28;20043;-28
2022/04/24 00:28:14;;;;;;;10.48;9.35;;;;;;;11.15;93.13;100662.72;5112240;28;20039;-27
2022/04/24 00:30:41;;;;;;;9.52;7.47;;;;;;;11.12;93.39;100664.16;5112750;27;20412;-27
2022/04/24 00:33:09;;;;;;;10.65;8.45;;;;;;;11.12;93.07;100675.34;5112794;28;20059;-28
2022/04/24 00:35:37;;;;;;;10.25;9.15;;;;;;;11.09;93.52;100670.38;5112057;28;20556;-26
2022/04/24 00:38:05;;;;;;;10.32;7.75;;;;;;;11.06;93.85;100670.97;5112761;27;20527;-27
2022/04/24 00:40:33;;;;;;;10.35;8.50;;;;;;;11.05;93.87;100669.31;5112904;28;20061;-27
2022/04/24 00:43:01;;;;;;;10.45;8.98;;;;;;;11.02;94.28;100676.34;5111814;28;20039;-26
2022/04/24 00:45:54;;;;;;;11.90;8.35;;;;;;;10.98;94.42;100674.50;5112414;28;20096;-26
2022/04/24 00:48:22;;;;;;;11.93;9.43;;;;;;;10.96;94.54;100672.00;5112660;28;20040;-26
2022/04/24 00:51:10;;;;;;;10.68;9.13;;;;;;;10.93;94.63;100669.00;5111192;28;20461;-26
2022/04/24 00:53:38;;;;;;;9.45;8.43;;;;;;;10.93;94.63;100674.56;5112347;28;20100;-30
2022/04/24 00:56:06;;;;;;;10.50;8.10;;;;;;;10.91;94.58;100679.63;5111517;28;20096;-27
2022/04/24 00:58:34;;;;;;;11.00;8.65;;;;;;;10.90;94.43;100683.56;5101231;28;20078;-27
2022/04/24 01:01:03;;;;;;;9.80;8.45;;;;;;;10.86;94.55;100665.75;5112150;28;20035;-29
2022/04/24 01:03:32;;;;;;;12.60;9.05;;;;;;;10.84;94.55;100676.41;5111788;27;20076;-26
2022/04/24 01:05:59;;;;;;;10.32;8.45;;;;;;;10.82;94.54;100678.66;5111965;28;20448;-26
2022/04/24 01:08:27;;;;;;;13.02;8.95;;;;;;;10.81;94.57;100668.63;5112073;28;20054;-28
2022/04/24 01:10:55;;;;;;;10.63;9.23;;;;;;;10.79;94.79;100673.72;5111581;28;20052;-28
2022/04/24 01:13:22;;;;;;;10.52;8.82;;;;;;;10.78;94.84;100672.88;5112354;28;20059;-26
2022/04/24 01:15:50;;;;;;;9.13;8.00;;;;;;;10.78;94.74;100672.06;5112188;28;20496;-26
2022/04/24 01:18:20;;;;;;;10.07;7.72;;;;;;;10.75;94.75;100669.88;5111162;28;20500;-29
2022/04/24 01:20:49;;;;;;;10.52;7.72;;;;;;;10.75;95.19;100683.81;5111887;28;20058;-25
2022/04/24 01:23:16;;;;;;;10.95;8.13;;;;;;;10.74;95.03;100668.22;5112162;28;20043;-26
2022/04/24 01:25:44;;;;;;;9.68;7.35;;;;;;;10.71;95.37;100678.00;5111359;28;20058;-27
2022/04/24 01:28:12;;;;;;;9.07;7.60;;;;;;;10.70;95.27;100685.56;5111951;28;20039;-26
2022/04/24 01:30:40;;;;;;;9.85;8.18;;;;;;;10.69;95.36;100675.53;5111592;28;20043;-27
2022/04/24 01:33:08;;;;;;;8.95;7.63;;;;;;;10.69;95.32;100671.91;5111692;28;20476;-29
2022/04/24 01:35:36;;;;;;;9.00;7.28;;;;;;;10.67;95.64;100679.75;5111528;28;20051;-27
2022/04/24 01:38:05;;;;;;;9.98;7.40;;;;;;;10.65;95.42;100674.47;5111009;28;20062;-27
2022/04/24 01:40:33;;;;;;;8.60;6.65;;;;;;;10.62;95.22;100680.66;5111592;28;20056;-27
2022/04/24 01:43:01;;;;;;;9.55;7.75;;;;;;;10.61;95.22;100672.59;5110493;28;20043;-27
2022/04/24 01:45:29;;;;;;;8.85;7.43;;;;;;;10.59;94.95;100680.47;5110827;28;20043;-28
2022/04/24 01:47:57;;;;;;;9.70;6.55;;;;;;;10.56;95.18;100681.06;5111454;28;20057;-29
2022/04/24 01:50:25;;;;;;;9.80;7.10;;;;;;;10.55;95.16;100688.59;5111708;28;20404;-26
2022/04/24 01:52:52;;;;;;;9.00;6.97;;;;;;;10.54;95.21;100681.38;5110962;28;20130;-30
2022/04/24 01:55:22;;;;;;;9.00;6.70;;;;;;;10.52;95.23;100683.63;5111626;27;20036;-27
2022/04/24 01:57:51;;;;;;;8.45;6.40;;;;;;;10.51;95.18;100675.56;5111585;28;20196;-29
2022/04/24 02:00:19;;;;;;;8.55;6.15;;;;;;;10.49;94.76;100675.84;5110802;28;20055;-26
2022/04/24 02:02:47;;;;;;;8.85;6.40;;;;;;;10.49;94.61;100672.25;5110949;28;20047;-25
2022/04/24 02:05:17;;;;;;;8.60;7.05;;;;;;;10.46;94.40;100673.66;5110644;28;20127;-26
2022/04/24 02:07:45;;;;;;;7.93;6.47;;;;;;;10.46;94.28;100670.06;5110670;28;20051;-26
2022/04/24 02:10:13;;;;;;;9.20;6.93;;;;;;;10.44;94.05;100670.34;5111310;28;20048;-26
2022/04/24 02:12:44;;;;;;;7.82;6.32;;;;;;;10.43;94.54;100674.28;5111152;28;20043;-26
2022/04/24 02:15:12;;;;;;;8.00;6.75;;;;;;;10.42;94.84;100674.56;5113251;28;20138;-27
2022/04/24 02:17:40;;;;;;;8.23;6.45;;;;;;;10.41;95.01;100670.94;5115460;28;20050;-33
2022/04/24 02:20:09;;;;;;;8.50;6.43;;;;;;;10.38;95.39;100674.38;5114730;28;20059;-26
2022/04/24 02:22:37;;;;;;;7.40;5.78;;;;;;;10.36;95.25;100676.63;5115456;28;20510;-27
2022/04/24 02:25:06;;;;;;;8.43;6.43;;;;;;;10.34;95.08;100664.94;5115484;28;20508;-26
2022/04/24 02:27:34;;;;;;;7.88;5.50;;;;;;;10.31;94.60;100671.94;5114335;28;20039;-27
2022/04/24 02:30:03;;;;;;;6.88;5.43;;;;;;;10.29;94.34;100668.63;5115250;28;20039;-27
2022/04/24 02:32:31;;;;;;;6.97;5.43;;;;;;;10.27;94.08;100670.06;5115360;28;20501;-27
2022/04/24 02:34:58;;;;;;;6.50;5.72;;;;;;;10.27;93.92;100664.50;5114375;28;20059;-27
2022/04/24 02:37:27;;;;;;;8.57;6.00;;;;;;;10.27;94.09;100675.63;5115207;28;20054;-26
2022/04/24 02:39:55;;;;;;;7.93;6.57;;;;;;;10.25;94.06;100678.72;5115107;28;20039;-28
2022/04/24 02:42:22;;;;;;;7.38;5.18;;;;;;;10.24;94.44;100679.84;5114399;28;20500;-27
2022/04/24 02:44:50;;;;;;;9.02;6.63;;;;;;;10.22;94.52;100676.53;5115164;28;20066;-27
2022/04/24 02:47:19;;;;;;;7.15;5.68;;;;;;;10.21;94.01;100676.84;5114851;28;20047;-27
2022/04/24 02:49:47;;;;;;;8.07;6.03;;;;;;;10.18;94.31;100678.25;5114108;28;20196;-29
2022/04/24 02:52:15;;;;;;;7.03;6.07;;;;;;;10.17;94.08;100670.19;5114994;28;20050;-29
2022/04/24 02:54:42;;;;;;;7.05;5.68;;;;;;;10.16;94.19;100674.13;5113234;28;20051;-30
2022/04/24 02:57:12;;;;;;;8.38;6.50;;;;;;;10.14;94.06;100677.19;5114512;28;20126;-29
2022/04/24 02:59:42;;;;;;;9.02;6.70;;;;;;;10.14;94.73;100676.38;5114649;28;20070;-28
2022/04/24 03:02:11;;;;;;;6.25;5.25;;;;;;;10.12;94.81;100671.09;5113494;28;20075;-26
2022/04/24 03:04:41;;;;;;;7.13;5.40;;;;;;;10.09;95.01;100680.06;5114500;28;20051;-28
2022/04/24 03:07:09;;;;;;;8.10;5.45;;;;;;;10.07;95.31;100682.31;5114392;28;20104;-27
2022/04/24 03:09:37;;;;;;;7.60;5.95;;;;;;;10.05;95.56;100679.00;5114057;28;20051;-29
2022/04/24 03:12:05;;;;;;;8.95;6.30;;;;;;;10.02;95.80;100682.38;5114273;28;20484;-26
2022/04/24 03:14:33;;;;;;;9.00;6.15;;;;;;;10.00;95.78;100677.09;5114541;28;20043;-28
2022/04/24 03:17:01;;;;;;;7.60;5.63;;;;;;;9.98;96.45;100672.97;5113511;28;20048;-27
2022/04/24 03:19:29;;;;;;;8.95;6.38;;;;;;;9.95;97.05;100671.63;5114321;28;20066;-28
2022/04/24 03:21:58;;;;;;;8.57;5.82;;;;;;;9.95;97.02;100674.41;5113971;28;20446;-25
2022/04/24 03:24:25;;;;;;;9.15;6.55;;;;;;;9.92;97.34;100669.41;5112415;28;20043;-28
2022/04/24 03:26:53;;;;;;;9.13;6.95;;;;;;;9.89;97.65;100670.03;5113562;28;20044;-30
2022/04/24 03:29:21;;;;;;;9.30;7.03;;;;;;;9.87;97.81;100677.84;5114073;28;20051;-28
2022/04/24 03:31:48;;;;;;;8.07;6.35;;;;;;;9.83;98.18;100671.19;5113143;28;20488;-27
2022/04/24 03:34:17;;;;;;;8.55;6.97;;;;;;;9.80;98.39;100676.53;5113965;28;20122;-25
2022/04/24 03:36:45;;;;;;;9.73;6.82;;;;;;;9.76;98.66;100672.72;5114230;28;20051;-28
2022/04/24 03:39:14;;;;;;;9.77;7.38;;;;;;;9.71;98.74;100670.81;5113012;28;20477;-28
2022/04/24 03:41:41;;;;;;;7.95;6.80;;;;;;;9.64;99.01;100675.91;5113561;28;20051;-27
2022/04/24 03:44:09;;;;;;;8.73;6.88;;;;;;;9.61;99.18;100676.50;5113689;28;20514;-27
2022/04/24 03:46:37;;;;;;;8.68;6.70;;;;;;;9.59;99.34;100676.00;5108445;28;20054;-28
2022/04/24 03:49:04;;;;;;;8.00;5.90;;;;;;;9.54;99.34;100676.88;5113472;28;20048;-25
2022/04/24 03:51:32;;;;;;;11.35;7.53;;;;;;;9.51;99.40;100677.47;5112918;28;20048;-32
2022/04/24 03:54:00;;;;;;;7.70;6.15;;;;;;;9.49;99.50;100676.94;5109950;28;20554;-27
2022/04/24 03:56:31;;;;;;;9.48;6.70;;;;;;;9.47;99.54;100670.81;5112364;28;20078;-27
2022/04/24 03:58:59;;;;;;;11.18;7.10;;;;;;;9.45;99.72;100672.25;5112822;28;20044;-26
2022/04/24 04:01:27;;;;;;;9.93;7.10;;;;;;;9.43;99.66;100683.69;5113408;28;20139;-27
2022/04/24 04:03:56;;;;;;;9.50;6.70;;;;;;;9.41;99.39;100676.75;5110455;28;20043;-27
2022/04/24 04:06:24;;;;;;;9.30;7.43;;;;;;;9.39;99.72;100676.22;5112631;28;20052;-27
2022/04/24 04:08:52;;;;;;;8.23;6.38;;;;;;;9.36;99.76;100679.59;5113472;28;20394;-26
2022/04/24 04:11:20;;;;;;;7.57;6.35;;;;;;;9.33;99.82;100679.06;5105655;28;20047;-26
2022/04/24 04:13:49;;;;;;;10.38;6.93;;;;;;;9.30;99.71;100685.22;5112230;28;20043;-26
2022/04/24 04:16:16;;;;;;;7.55;6.75;;;;;;;9.27;99.65;100683.03;5113046;28;20381;-27
2022/04/24 04:18:44;;;;;;;9.38;7.25;;;;;;;9.26;100.00;100684.16;5113133;28;20052;-26
2022/04/24 04:21:12;;;;;;;8.13;6.63;;;;;;;9.24;99.93;100694.75;5112209;28;20048;-26
2022/04/24 04:23:40;;;;;;;8.05;6.82;;;;;;;9.22;100.00;100683.06;5112843;28;20051;-28
2022/04/24 04:26:07;;;;;;;8.65;7.10;;;;;;;9.20;100.00;100696.44;5113053;28;20051;-27
2022/04/24 04:28:36;;;;;;;8.73;7.18;;;;;;;9.19;100.00;100691.22;5112080;28;20408;-26
2022/04/24 04:31:05;;;;;;;7.82;6.80;;;;;;;9.19;100.00;100694.78;5113177;28;20050;-26
2022/04/24 04:33:33;;;;;;;9.02;6.93;;;;;;;9.16;100.00;100698.19;5112711;28;20039;-30
2022/04/24 04:36:00;;;;;;;10.32;7.13;;;;;;;9.18;100.00;100706.25;5112257;28;20481;-28
2022/04/24 04:38:28;;;;;;;9.82;7.40;;;;;;;9.17;99.97;100712.94;5112751;28;20050;-28
2022/04/24 04:40:56;;;;;;;11.75;7.43;;;;;;;9.16;99.84;100717.69;5111705;28;20056;-29
2022/04/24 04:43:26;;;;;;;9.60;6.47;;;;;;;9.16;99.63;100714.06;5112742;28;20160;-28
2022/04/24 04:45:54;;;;;;;7.65;6.47;;;;;;;9.15;99.33;100713.22;5112913;28;20043;-26
2022/04/24 04:48:23;;;;;;;8.57;5.88;;;;;;;9.17;99.19;100716.56;5111486;28;20134;-27
2022/04/24 04:50:51;;;;;;;12.00;6.97;;;;;;;9.16;99.39;100717.69;5112666;28;20082;-26
2022/04/24 04:53:19;;;;;;;9.20;6.80;;;;;;;9.17;99.35;100712.94;5112448;28;20052;-27
2022/04/24 04:55:47;;;;;;;8.18;5.93;;;;;;;9.18;99.79;100718.22;5111790;28;20059;-28
2022/04/24 04:58:15;;;;;;;8.20;6.50;;;;;;;9.19;99.68;100719.84;5112588;28;20051;-29
2022/04/24 05:00:43;;;;;;;9.27;6.47;;;;;;;9.19;99.53;100725.41;5112321;28;20051;-25
2022/04/24 05:03:11;;;;;;;9.52;6.10;;;;;;;9.21;99.36;100719.56;5111445;28;20050;-27
2022/04/24 05:05:41;;;;;;;8.35;6.78;;;;;;;9.23;99.21;100726.50;5112080;28;20096;-27
2022/04/24 05:08:09;;;;;;;9.95;6.88;;;;;;;9.23;99.44;100740.41;5111987;28;20051;-27
2022/04/24 05:10:36;;;;;;;8.38;6.35;;;;;;;9.24;99.20;100730.94;5110241;28;20399;-27
2022/04/24 05:13:04;;;;;;;9.52;6.80;;;;;;;9.26;98.91;100734.25;5111909;28;20036;-27
2022/04/24 05:15:32;;;;;;;7.60;5.57;;;;;;;9.30;98.81;100746.47;5111983;28;20440;-30
2022/04/24 05:18:00;;;;;;;7.18;5.80;;;;;;;9.32;98.33;100744.25;5111228;28;20135;-26
2022/04/24 05:20:28;;;;;;;7.72;5.57;;;;;;;9.35;98.07;100742.81;5111859;28;20050;-33
2022/04/24 05:23:05;;;;;;;8.77;5.80;;;;;;;9.41;98.25;100738.84;5111210;28;20044;-27
2022/04/24 05:25:33;;;;;;;7.32;5.65;;;;;;;9.42;98.23;100743.28;5112398;28;20463;-26
2022/04/24 05:28:01;;;;;;;9.52;6.25;;;;;;;9.47;98.29;100739.63;5111945;28;20058;-26
2022/04/24 05:30:30;;;;;;;7.97;5.75;;;;;;;9.50;98.11;100742.66;5099845;28;20496;-25
2022/04/24 05:33:00;;;;;;;8.65;5.60;;;;;;;9.53;98.40;100753.22;5111737;28;20044;-26
2022/04/24 05:35:28;;;;;;;9.70;6.13;;;;;;;9.57;98.43;100750.69;5111850;28;20035;-26
2022/04/24 05:37:56;;;;;;;8.43;5.75;;;;;;;9.59;98.33;100743.66;5110983;27;20098;-28
2022/04/24 05:40:25;;;;;;;8.85;4.95;;;;;;;9.61;98.11;100757.28;5108094;28;20043;-26
2022/04/24 05:42:55;;;;;;;8.27;5.75;;;;;;;9.63;97.83;100746.69;5110346;28;20112;-26
2022/04/24 05:45:24;;;;;;;9.57;6.00;;;;;;;9.64;97.93;100751.97;5109666;28;20058;-26
2022/04/24 05:47:54;;;;;;;8.35;6.07;;;;;;;9.70;98.13;100755.53;5110209;28;20138;-27
2022/04/24 05:50:24;;;;;;;7.43;5.47;;;;;;;9.74;97.86;100753.81;5110304;28;20730;-28
2022/04/24 05:52:55;;;;;;;8.40;5.70;;;;;;;9.78;97.76;100754.91;5109617;28;20109;-28
2022/04/24 05:55:23;;;;;;;7.88;5.70;;;;;;;9.79;97.53;100753.75;5109375;28;20055;-26
2022/04/24 05:57:53;;;;;;;8.95;5.60;;;;;;;9.82;97.44;100758.72;5110234;28;20035;-29
2022/04/24 06:00:22;;;;;;;8.15;5.70;;;;;;;9.85;97.51;100766.50;5109700;28;20056;-27
2022/04/24 06:02:52;;;;;;;7.78;5.50;;;;;;;9.88;97.22;100765.91;5110594;28;20085;-27
2022/04/24 06:05:21;;;;;;;7.25;5.90;;;;;;;9.90;96.76;100760.88;5109945;28;20483;-27
2022/04/24 06:07:48;;;;;;;6.57;5.18;;;;;;;9.95;96.48;100768.34;5110347;28;20047;-27
2022/04/24 06:10:17;;;;;;;7.70;5.68;;;;;;;9.99;96.38;100761.06;5110523;28;20464;-28
2022/04/24 06:12:46;;;;;;;8.07;5.25;;;;;;;10.04;95.92;100766.53;5107753;28;20473;-29
2022/04/24 06:15:17;;;;;;;9.60;5.82;;;;;;;10.08;95.57;100761.19;5110663;28;20090;-32
2022/04/24 06:17:46;;;;;;;8.63;4.78;;;;;;;10.13;95.26;100769.50;5110716;28;20057;-27
2022/04/24 06:20:15;;;;;;;8.18;4.85;;;;;;;10.18;95.02;100772.25;5109527;28;20050;-28
2022/04/24 06:22:44;;;;;;;7.10;5.38;;;;;;;10.24;94.54;100771.06;5107269;28;20134;-28
2022/04/24 06:25:16;;;;;;;9.13;5.28;;;;;;;10.30;94.23;100775.44;5109990;28;20056;-27
2022/04/24 06:27:44;;;;;;;6.63;5.13;;;;;;;10.41;94.29;100770.53;5109664;28;20134;-29
2022/04/24 06:30:12;;;;;;;6.38;4.20;;;;;;;10.59;93.86;100769.75;5110305;28;20082;-27
2022/04/24 06:32:43;;;;;;;5.95;4.40;;;;;;;10.84;92.91;100768.50;5110378;28;20049;-27
2022/04/24 06:35:13;;;;;;;10.02;5.28;;;;;;;11.10;91.29;100763.34;5109750;28;20048;-34
2022/04/24 06:37:42;;;;;;;8.68;4.65;;;;;;;11.39;90.24;100763.94;5109777;28;20083;-29
2022/04/24 06:40:12;;;;;;;8.23;5.30;;;;;;;11.72;89.15;100768.34;5109429;28;20063;-30
2022/04/24 06:42:49;;;;;;;7.00;4.63;;;;;;;12.11;87.42;100781.03;5109800;28;20408;-28
2022/04/24 06:45:17;;;;;;;8.05;4.50;;;;;;;12.44;86.13;100778.91;5098746;28;20043;-28
2022/04/24 06:47:46;;;;;;;6.43;4.43;;;;;;;12.84;83.70;100774.34;5107751;28;20058;-27
2022/04/24 06:50:14;;;;;;;6.72;4.47;;;;;;;13.18;81.62;100773.84;5109879;28;20496;-28
2022/04/24 06:52:42;;;;;;;6.65;4.72;;;;;;;13.49;78.79;100775.84;5109604;28;20048;-27
2022/04/24 06:55:10;;;;;;;5.90;4.70;;;;;;;13.71;77.27;100773.81;5109121;28;20040;-28
2022/04/24 06:57:38;;;;;;;8.43;4.72;;;;;;;13.97;76.12;100773.94;5109761;28;20056;-27
2022/04/24 07:00:07;;;;;;;9.07;5.43;;;;;;;14.31;75.08;100769.59;5111678;28;20054;-28
2022/04/24 07:02:35;;;;;;;8.80;5.57;;;;;;;14.71;73.70;100771.16;5112525;28;20135;-29
2022/04/24 07:05:05;;;;;;;6.97;5.00;;;;;;;15.03;70.89;100771.81;5113611;28;20039;-30
2022/04/24 07:07:32;;;;;;;7.43;4.07;;;;;;;15.35;70.23;100771.31;5113182;27;20040;-31
2022/04/24 07:10:00;;;;;;;7.35;4.57;;;;;;;15.74;67.99;100773.06;5113058;28;20047;-29
2022/04/24 07:12:29;;;;;;;7.25;4.20;;;;;;;15.91;66.08;100776.97;5114518;28;20050;-32
2022/04/24 07:14:57;;;;;;;6.75;4.53;;;;;;;16.17;65.17;100781.31;5114055;28;20039;-32
2022/04/24 07:17:25;;;;;;;7.22;4.65;;;;;;;16.39;63.41;100787.81;5113687;28;20082;-28
2022/04/24 07:19:53;;;;;;;7.65;4.72;;;;;;;16.73;62.67;100789.63;5114469;28;20044;-28
2022/04/24 07:22:22;;;;;;;5.82;4.40;;;;;;;17.14;60.95;100786.81;5113492;28;20369;-29
2022/04/24 07:24:49;;;;;;;8.80;5.30;;;;;;;17.37;58.10;100795.72;5114083;28;20039;-28
2022/04/24 07:27:17;;;;;;;6.05;3.95;;;;;;;17.37;57.91;100784.44;5114109;28;20062;-28
2022/04/24 07:29:45;;;;;;;9.25;5.30;;;;;;;17.42;56.23;100795.50;5112412;28;20085;-28
2022/04/24 07:32:12;;;;;;;6.10;4.80;;;;;;;17.67;56.43;100798.44;5114179;28;20044;-28
2022/04/24 07:34:43;;;;;;;7.45;4.03;;;;;;;18.08;55.44;100794.63;5111774;28;20481;-28
2022/04/24 07:37:11;;;;;;;6.90;4.43;;;;;;;18.37;53.81;100782.28;5112989;28;20051;-35
2022/04/24 07:39:40;;;;;;;9.43;4.68;;;;;;;18.53;52.91;100791.69;5113852;28;20046;-28
2022/04/24 07:42:08;;;;;;;7.05;4.80;;;;;;;18.63;51.94;100790.41;5112462;28;20048;-29
2022/04/24 07:44:36;;;;;;;5.15;3.50;;;;;;;18.85;51.52;100802.03;5113056;28;20046;-29
2022/04/24 07:47:04;;;;;;;6.93;4.40;;;;;;;18.92;50.57;100793.78;5114023;28;20118;-28
2022/04/24 07:49:33;;;;;;;5.63;4.15;;;;;;;19.02;50.02;100786.78;5112761;28;20078;-29
2022/04/24 07:52:01;;;;;;;7.88;4.65;;;;;;;19.32;49.48;100792.94;5113073;27;20051;-29
2022/04/24 07:54:29;;;;;;;6.68;4.68;;;;;;;19.41;48.50;100793.59;5113318;28;20126;-29
2022/04/24 07:56:58;;;;;;;6.55;4.10;;;;;;;19.46;48.53;100787.69;5111864;28;20047;-30
2022/04/24 07:59:25;;;;;;;5.10;3.72;;;;;;;19.85;48.43;100791.63;5111903;28;20272;-30
2022/04/24 08:01:53;;;;;;;6.20;3.70;;;;;;;20.42;47.13;100792.28;5112039;28;20047;-33
2022/04/24 08:04:21;;;;;;;6.60;4.30;;;;;;;20.84;45.77;100798.97;5113052;28;20036;-34
2022/04/24 08:06:49;;;;;;;6.32;4.38;;;;;;;20.90;44.81;100796.69;5112361;28;20054;-34
2022/04/24 08:09:17;;;;;;;5.68;4.43;;;;;;;20.94;44.08;100801.25;5113012;28;20062;-36
2022/04/24 08:11:44;;;;;;;6.63;4.28;;;;;;;20.97;44.04;100809.03;5112008;28;20489;-27
2022/04/24 08:14:14;;;;;;;6.22;4.10;;;;;;;20.87;43.50;100803.91;5112657;28;20514;-34
2022/04/24 08:16:42;;;;;;;5.47;4.30;;;;;;;20.84;43.22;100795.31;5113200;28;20130;-33
2022/04/24 08:19:10;;;;;;;6.32;4.18;;;;;;;20.90;42.79;100803.19;5112370;28;20047;-32
2022/04/24 08:21:43;;;;;;;6.78;4.22;;;;;;;20.66;42.95;100814.75;5112787;28;20039;-32
2022/04/24 08:24:11;;;;;;;5.65;3.80;;;;;;;20.62;42.38;100809.00;5112803;28;20058;-29
2022/04/24 08:26:39;;;;;;;6.05;4.05;;;;;;;20.71;42.52;100802.31;5110940;28;20609;-34
2022/04/24 08:29:06;;;;;;;4.70;3.60;;;;;;;20.89;42.38;100803.56;5112645;28;20040;-30
2022/04/24 08:31:35;;;;;;;5.25;3.63;;;;;;;21.37;42.27;100809.91;5112992;28;20050;-31
2022/04/24 08:34:03;;;;;;;5.05;3.85;;;;;;;21.77;40.69;100800.97;5112057;28;20096;-33
2022/04/24 08:36:31;;;;;;;5.95;4.05;;;;;;;21.91;39.92;100809.75;5112506;28;20074;-29
2022/04/24 08:38:59;;;;;;;6.30;4.03;;;;;;;21.79;39.46;100802.22;5112674;28;20047;-34
2022/04/24 08:41:31;;;;;;;5.60;3.88;;;;;;;21.62;39.80;100792.16;5111923;28;20059;-33
2022/04/24 08:43:59;;;;;;;5.07;3.42;;;;;;;21.59;40.15;100800.59;5112730;28;20095;-34
2022/04/24 08:46:27;;;;;;;5.10;3.35;;;;;;;21.85;40.01;100811.25;5111659;28;20050;-28
2022/04/24 08:48:57;;;;;;;4.90;3.70;;;;;;;21.85;39.02;100797.06;5110577;28;20047;-29
2022/04/24 08:51:25;;;;;;;4.55;3.15;;;;;;;21.75;39.34;100811.88;5111129;28;20044;-33
2022/04/24 08:53:54;;;;;;;5.93;3.80;;;;;;;21.63;39.03;100812.84;5110755;28;20439;-28
2022/04/24 08:56:22;;;;;;;4.35;3.10;;;;;;;21.62;38.25;100819.75;5111209;28;20044;-29
2022/04/24 08:58:49;;;;;;;4.88;3.03;;;;;;;21.65;37.55;100816.97;5111426;28;20043;-31
2022/04/24 09:01:23;;;;;;;4.80;2.50;;;;;;;21.75;38.00;100821.22;5111259;28;20046;-33
2022/04/24 09:03:51;;;;;;;5.22;3.35;;;;;;;22.01;36.99;100823.34;5111287;28;20057;-30
2022/04/24 09:06:24;;;;;;;3.65;2.60;;;;;;;21.96;36.82;100827.31;5111725;28;20043;-32
2022/04/24 09:08:52;;;;;;;4.65;2.90;;;;;;;21.96;37.25;100821.66;5111139;28;20113;-29
2022/04/24 09:11:26;;;;;;;3.60;2.50;;;;;;;22.16;37.11;100825.28;5104675;28;20055;-29
2022/04/24 09:16:46;;;;;;;5.47;2.92;;;;;;;22.20;36.61;100819.63;5105289;28;20055;-30
2022/04/24 09:19:19;;;;;;;4.53;2.45;;;;;;;22.27;36.52;100828.31;5110931;27;20043;-30
2022/04/24 09:21:49;;;;;;;4.80;2.22;;;;;;;22.31;36.45;100837.72;5110864;28;20085;-29
2022/04/24 09:24:17;;;;;;;4.55;2.55;;;;;;;22.29;35.94;100823.88;5109172;28;20051;-34
2022/04/24 09:26:52;;;;;;;3.17;2.10;;;;;;;22.17;34.52;100821.25;5111835;28;20040;-33
2022/04/24 09:29:22;;;;;;;3.83;1.90;;;;;;;22.11;36.42;100825.59;5111037;28;20096;-32
2022/04/24 09:31:50;;;;;;;4.32;2.10;;;;;;;22.20;36.15;100822.47;5110543;28;20043;-28
2022/04/24 09:34:20;;;;;;;3.70;2.00;;;;;;;22.32;35.85;100828.81;5110045;28;20057;-28
2022/04/24 09:37:00;;;;;;;3.92;1.70;;;;;;;22.53;35.07;100831.19;5110676;28;20135;-30
2022/04/24 09:39:29;;;;;;;2.50;1.70;;;;;;;22.71;35.63;100837.16;5111814;28;20401;-28
2022/04/24 09:42:04;;;;;;;3.22;1.65;;;;;;;22.95;34.42;100833.94;5111650;28;20055;-32
2022/04/24 09:44:42;;;;;;;4.05;1.83;;;;;;;23.07;33.17;100835.72;5110850;28;20401;-33
2022/04/24 09:47:30;;;;;;;3.35;1.63;;;;;;;23.18;34.61;100828.13;5104145;28;20104;-29
2022/04/24 09:50:01;;;;;;;5.60;1.63;;;;;;;23.30;34.07;100842.16;5111924;28;20139;-30
2022/04/24 09:52:32;;;;;;;4.07;1.73;;;;;;;23.23;34.04;100835.53;5111627;28;20054;-34
2022/04/24 09:55:01;;;;;;;3.42;1.60;;;;;;;23.17;34.16;100837.09;5110535;28;20489;-29
2022/04/24 09:57:30;;;;;;;2.85;1.42;;;;;;;23.30;33.95;100842.16;5110470;28;20046;-29
2022/04/24 09:59:58;;;;;;;4.25;1.63;;;;;;;23.38;33.96;100840.22;5111202;28;20057;-30
2022/04/24 10:02:27;;;;;;;5.32;2.00;;;;;;;23.63;34.11;100837.69;5111454;28;20043;-28
2022/04/24 10:04:55;;;;;;;3.83;1.63;;;;;;;23.50;34.07;100853.38;5110365;28;20051;-32
2022/04/24 10:07:23;;;;;;;3.38;1.60;;;;;;;23.51;34.23;100837.94;5111242;28;20063;-30
2022/04/24 10:09:54;;;;;;;4.85;1.67;;;;;;;23.53;34.60;100842.06;5111383;28;20084;-30
2022/04/24 10:12:23;;;;;;;6.18;2.08;;;;;;;23.69;35.56;100847.53;5110295;28;20104;-29
2022/04/24 10:14:56;;;;;;;6.68;1.83;;;;;;;23.69;36.89;100848.38;5111144;28;20055;-34
2022/04/24 10:17:43;;;;;;;6.68;1.95;;;;;;;23.54;37.56;100854.28;5111450;28;20043;-30
2022/04/24 10:20:33;;;;;;;6.88;1.63;;;;;;;23.24;38.84;100854.25;5100064;28;20047;-33
2022/04/24 10:23:01;;;;;;;6.13;1.95;;;;;;;23.13;40.11;100847.59;5111295;28;20511;-29
2022/04/24 10:25:36;;;;;;;9.60;2.17;;;;;;;23.16;40.05;100861.88;5110321;28;20035;-29
2022/04/24 10:28:16;;;;;;;7.30;1.90;;;;;;;23.07;40.24;100864.19;5111315;28;20504;-29
2022/04/24 10:30:46;;;;;;;7.65;2.20;;;;;;;23.06;40.58;100865.38;5110788;28;20132;-28
2022/04/24 10:33:18;;;;;;;7.75;2.13;;;;;;;23.10;40.77;100862.59;5110267;28;20158;-32
2022/04/24 10:35:51;;;;;;;7.93;2.20;;;;;;;22.92;41.02;100868.84;5114381;28;20040;-35
2022/04/24 10:38:22;;;;;;;6.55;2.00;;;;;;;22.92;41.17;100863.16;5114877;28;20401;-34
2022/04/24 10:41:03;;;;;;;5.30;1.90;;;;;;;22.95;40.67;100858.72;5113146;28;20051;-32
2022/04/24 10:43:39;;;;;;;7.03;1.85;;;;;;;22.87;41.33;100876.88;5114475;28;20096;-34
2022/04/24 10:46:17;;;;;;;6.05;2.20;;;;;;;22.81;41.34;100865.00;5104435;28;20040;-33
2022/04/24 10:48:46;;;;;;;6.20;1.85;;;;;;;22.94;41.37;100860.75;5114484;28;20069;-35
2022/04/24 10:51:15;;;;;;;6.70;2.17;;;;;;;22.98;40.41;100870.13;5114256;28;20048;-30
2022/04/24 10:53:50;;;;;;;7.10;2.05;;;;;;;22.94;40.09;100859.91;5114036;28;20039;-27
2022/04/24 10:56:20;;;;;;;9.50;1.90;;;;;;;22.87;40.12;100863.47;5113218;28;20044;-28
2022/04/24 10:58:49;;;;;;;6.60;1.80;;;;;;;22.78;40.45;100868.59;5112985;28;20094;-27
2022/04/24 11:01:17;;;;;;;7.15;2.17;;;;;;;22.79;40.40;100869.41;5112739;28;20048;-29
2022/04/24 11:03:47;;;;;;;6.53;1.85;;;;;;;22.64;41.00;100857.78;5106976;28;20081;-29
2022/04/24 11:06:19;;;;;;;6.00;2.05;;;;;;;22.60;40.95;100873.97;5109652;28;20036;-31
2022/04/24 11:08:48;;;;;;;8.07;2.20;;;;;;;22.47;41.03;100874.56;5112832;28;20043;-28
2022/04/24 11:11:17;;;;;;;4.68;2.05;;;;;;;22.19;41.26;100872.81;5113253;28;20105;-29
2022/04/24 11:13:47;;;;;;;6.00;2.05;;;;;;;22.00;41.48;100867.19;5112813;28;20035;-29
2022/04/24 11:16:14;;;;;;;8.57;2.60;;;;;;;21.88;41.57;100870.19;5112559;28;20321;-30
2022/04/24 11:18:47;;;;;;;6.63;2.00;;;;;;;21.79;41.84;100861.88;5114269;28;20044;-30
2022/04/24 11:21:19;;;;;;;5.68;1.80;;;;;;;21.55;42.33;100862.22;5114229;28;20429;-28
2022/04/24 11:23:47;;;;;;;7.05;2.17;;;;;;;21.52;42.66;100855.25;5113526;28;20090;-31
2022/04/24 11:26:16;;;;;;;7.38;2.17;;;;;;;21.53;42.18;100870.28;5113954;28;20067;-29
2022/04/24 11:28:45;;;;;;;5.72;1.90;;;;;;;21.36;42.37;100865.03;5111649;28;20134;-28
2022/04/24 11:31:18;;;;;;;5.80;2.17;;;;;;;21.18;43.09;100873.13;5113440;28;20055;-29
2022/04/24 11:33:57;;;;;;;5.85;2.08;;;;;;;21.01;42.77;100885.69;5113139;28;20416;-29
2022/04/24 11:36:29;;;;;;;6.03;2.00;;;;;;;20.78;43.26;100862.06;5113372;28;20084;-28
2022/04/24 11:38:57;;;;;;;7.50;2.80;;;;;;;20.80;43.73;100871.00;5112492;28;20054;-29